sensor_id;sensor_type;location;lat;lon;timestamp;temperature;humidity
9965;DHT22;5023;53.554;9.964;2023-07-20T00:00:36;15.80;99.90
9965;DHT22;5023;53.554;9.964;2023-07-20T00:05:39;15.80;99.90
9965;DHT22;5023;53.554;9.964;2023-07-20T00:10:41;15.70;99.90
9965;DHT22;5023;53.554;9.964;2023-07-20T00:15:43;15.80;99.90
9965;DHT22;5023;53.554;9.964;2023-07-20T00:20:47;15.80;99.90
9965;DHT22;5023;53.554;9.964;2023-07-20T00:25:48;15.80;99.90
9965;DHT22;5023;53.554;9.964;2023-07-20T00:30:50;15.70;99.90
9965;DHT22;5023;53.554;9.964;2023-07-20T00:35:54;15.70;99.90
9965;DHT22;5023;53.554;9.964;2023-07-20T00:40:56;15.70;99.90
9965;DHT22;5023;53.554;9.964;2023-07-20T00:45:58;15.70;99.90
9965;DHT22;5023;53.554;9.964;2023-07-20T00:51:02;15.70;99.90
9965;DHT22;5023;53.554;9.964;2023-07-20T00:56:04;15.70;99.90
9965;DHT22;5023;53.554;9.964;2023-07-20T01:01:08;15.70;99.90
9965;DHT22;5023;53.554;9.964;2023-07-20T01:06:19;15.70;99.90
9965;DHT22;5023;53.554;9.964;2023-07-20T01:11:32;15.70;99.90
9965;DHT22;5023;53.554;9.964;2023-07-20T01:16:37;15.70;99.90
9965;DHT22;5023;53.554;9.964;2023-07-20T01:21:47;15.50;99.90
9965;DHT22;5023;53.554;9.964;2023-07-20T01:27:17;15.50;99.90
9965;DHT22;5023;53.554;9.964;2023-07-20T01:32:26;15.40;99.90
9965;DHT22;5023;53.554;9.964;2023-07-20T01:37:30;15.40;99.90
9965;DHT22;5023;53.554;9.964;2023-07-20T01:42:34;15.30;99.90
9965;DHT22;5023;53.554;9.964;2023-07-20T01:47:37;15.20;99.90
9965;DHT22;5023;53.554;9.964;2023-07-20T01:52:39;15.30;99.90
9965;DHT22;5023;53.554;9.964;2023-07-20T01:57:41;15.20;99.90
9965;DHT22;5023;53.554;9.964;2023-07-20T02:02:44;15.10;99.90
9965;DHT22;5023;53.554;9.964;2023-07-20T02:07:46;15.00;99.90
9965;DHT22;5023;53.554;9.964;2023-07-20T02:12:48;15.10;99.90
9965;DHT22;5023;53.554;9.964;2023-07-20T02:17:51;15.10;99.90
9965;DHT22;5023;53.554;9.964;2023-07-20T02:22:54;15.10;99.90
9965;DHT22;5023;53.554;9.964;2023-07-20T02:27:56;15.10;99.90
9965;DHT22;5023;53.554;9.964;2023-07-20T02:33:00;15.00;99.90
9965;DHT22;5023;53.554;9.964;2023-07-20T02:38:02;15.00;99.90
9965;DHT22;5023;53.554;9.964;2023-07-20T02:43:04;15.00;99.90
9965;DHT22;5023;53.554;9.964;2023-07-20T02:48:08;15.00;99.90
9965;DHT22;5023;53.554;9.964;2023-07-20T02:53:10;15.10;99.90
9965;DHT22;5023;53.554;9.964;2023-07-20T02:58:12;15.10;99.90
9965;DHT22;5023;53.554;9.964;2023-07-20T03:03:15;15.00;99.90
9965;DHT22;5023;53.554;9.964;2023-07-20T03:08:17;14.90;99.90
9965;DHT22;5023;53.554;9.964;2023-07-20T03:13:19;15.00;99.90
9965;DHT22;5023;53.554;9.964;2023-07-20T03:18:22;15.00;99.90
9965;DHT22;5023;53.554;9.964;2023-07-20T03:23:24;15.00;99.90
9965;DHT22;5023;53.554;9.964;2023-07-20T03:28:27;15.00;99.90
9965;DHT22;5023;53.554;9.964;2023-07-20T03:33:30;14.90;99.90
9965;DHT22;5023;53.554;9.964;2023-07-20T03:38:33;14.90;99.90
9965;DHT22;5023;53.554;9.964;2023-07-20T03:43:35;14.90;99.90
9965;DHT22;5023;53.554;9.964;2023-07-20T03:48:38;14.80;99.90
9965;DHT22;5023;53.554;9.964;2023-07-20T03:53:40;14.80;99.90
9965;DHT22;5023;53.554;9.964;2023-07-20T03:58:43;14.90;99.90
9965;DHT22;5023;53.554;9.964;2023-07-20T04:03:46;14.90;99.90
9965;DHT22;5023;53.554;9.964;2023-07-20T04:08:48;14.90;99.90
9965;DHT22;5023;53.554;9.964;2023-07-20T04:13:50;14.90;99.90
9965;DHT22;5023;53.554;9.964;2023-07-20T04:18:54;14.90;99.90
9965;DHT22;5023;53.554;9.964;2023-07-20T04:23:56;14.90;99.90
9965;DHT22;5023;53.554;9.964;2023-07-20T04:28:59;15.00;99.90
9965;DHT22;5023;53.554;9.964;2023-07-20T04:34:02;15.00;99.90
9965;DHT22;5023;53.554;9.964;2023-07-20T04:39:05;15.00;99.90
9965;DHT22;5023;53.554;9.964;2023-07-20T04:44:08;15.10;99.90
9965;DHT22;5023;53.554;9.964;2023-07-20T04:49:12;15.10;99.90
9965;DHT22;5023;53.554;9.964;2023-07-20T04:54:14;15.20;99.90
9965;DHT22;5023;53.554;9.964;2023-07-20T04:59:17;15.10;99.90
9965;DHT22;5023;53.554;9.964;2023-07-20T05:04:21;15.10;99.90
9965;DHT22;5023;53.554;9.964;2023-07-20T05:09:23;15.20;99.90
9965;DHT22;5023;53.554;9.964;2023-07-20T05:14:24;15.20;99.90
9965;DHT22;5023;53.554;9.964;2023-07-20T05:19:28;15.10;99.90
9965;DHT22;5023;53.554;9.964;2023-07-20T05:24:30;15.10;99.90
9965;DHT22;5023;53.554;9.964;2023-07-20T05:29:32;15.20;99.90
9965;DHT22;5023;53.554;9.964;2023-07-20T05:34:35;15.10;99.90
9965;DHT22;5023;53.554;9.964;2023-07-20T05:39:37;15.20;99.90
9965;DHT22;5023;53.554;9.964;2023-07-20T05:44:40;15.20;99.90
9965;DHT22;5023;53.554;9.964;2023-07-20T05:49:44;15.20;99.90
9965;DHT22;5023;53.554;9.964;2023-07-20T05:54:45;15.20;99.90
9965;DHT22;5023;53.554;9.964;2023-07-20T05:59:47;15.30;99.90
9965;DHT22;5023;53.554;9.964;2023-07-20T06:04:51;15.50;99.90
9965;DHT22;5023;53.554;9.964;2023-07-20T06:09:52;15.50;99.90
9965;DHT22;5023;53.554;9.964;2023-07-20T06:14:55;15.70;99.90
9965;DHT22;5023;53.554;9.964;2023-07-20T06:20:00;15.70;99.90
9965;DHT22;5023;53.554;9.964;2023-07-20T06:25:03;15.90;99.90
9965;DHT22;5023;53.554;9.964;2023-07-20T06:30:06;15.90;99.90
9965;DHT22;5023;53.554;9.964;2023-07-20T06:35:09;16.00;99.90
9965;DHT22;5023;53.554;9.964;2023-07-20T06:40:12;16.00;99.90
9965;DHT22;5023;53.554;9.964;2023-07-20T06:45:14;15.90;99.90
9965;DHT22;5023;53.554;9.964;2023-07-20T06:50:18;16.00;99.90
9965;DHT22;5023;53.554;9.964;2023-07-20T06:55:20;16.00;99.90
9965;DHT22;5023;53.554;9.964;2023-07-20T07:00:22;16.00;99.90
9965;DHT22;5023;53.554;9.964;2023-07-20T07:05:25;16.10;99.90
9965;DHT22;5023;53.554;9.964;2023-07-20T07:10:27;16.20;99.90
9965;DHT22;5023;53.554;9.964;2023-07-20T07:15:29;16.40;99.90
9965;DHT22;5023;53.554;9.964;2023-07-20T07:20:32;16.50;99.90
9965;DHT22;5023;53.554;9.964;2023-07-20T07:25:34;16.50;99.90
9965;DHT22;5023;53.554;9.964;2023-07-20T07:30:36;16.80;99.90
9965;DHT22;5023;53.554;9.964;2023-07-20T07:35:40;17.00;99.90
9965;DHT22;5023;53.554;9.964;2023-07-20T07:40:42;16.90;99.90
9965;DHT22;5023;53.554;9.964;2023-07-20T07:45:44;17.00;99.90
9965;DHT22;5023;53.554;9.964;2023-07-20T07:50:47;16.80;99.90
9965;DHT22;5023;53.554;9.964;2023-07-20T07:55:50;16.90;99.90
9965;DHT22;5023;53.554;9.964;2023-07-20T08:00:52;17.00;99.90
9965;DHT22;5023;53.554;9.964;2023-07-20T08:05:55;17.10;99.90
9965;DHT22;5023;53.554;9.964;2023-07-20T08:10:58;17.20;99.90
9965;DHT22;5023;53.554;9.964;2023-07-20T08:16:00;17.50;99.90
9965;DHT22;5023;53.554;9.964;2023-07-20T08:21:04;17.60;99.90
9965;DHT22;5023;53.554;9.964;2023-07-20T08:26:06;17.50;99.90
9965;DHT22;5023;53.554;9.964;2023-07-20T08:31:08;17.60;99.90
9965;DHT22;5023;53.554;9.964;2023-07-20T08:36:11;17.80;99.90
9965;DHT22;5023;53.554;9.964;2023-07-20T08:41:13;17.90;99.90
9965;DHT22;5023;53.554;9.964;2023-07-20T08:46:17;18.20;99.90
9965;DHT22;5023;53.554;9.964;2023-07-20T08:51:21;18.00;99.90
9965;DHT22;5023;53.554;9.964;2023-07-20T08:56:24;17.60;99.90
9965;DHT22;5023;53.554;9.964;2023-07-20T09:01:27;17.50;99.90
9965;DHT22;5023;53.554;9.964;2023-07-20T09:06:31;17.50;99.90
9965;DHT22;5023;53.554;9.964;2023-07-20T09:11:35;17.70;99.90
9965;DHT22;5023;53.554;9.964;2023-07-20T09:16:47;17.90;99.90
9965;DHT22;5023;53.554;9.964;2023-07-20T09:21:52;18.10;99.90
9965;DHT22;5023;53.554;9.964;2023-07-20T09:26:54;18.10;99.90
9965;DHT22;5023;53.554;9.964;2023-07-20T09:31:59;18.20;99.90
9965;DHT22;5023;53.554;9.964;2023-07-20T09:37:04;18.10;99.90
9965;DHT22;5023;53.554;9.964;2023-07-20T09:42:06;17.50;99.90
9965;DHT22;5023;53.554;9.964;2023-07-20T09:47:09;17.20;99.90
9965;DHT22;5023;53.554;9.964;2023-07-20T09:52:13;16.90;99.90
9965;DHT22;5023;53.554;9.964;2023-07-20T09:57:15;16.90;99.90
9965;DHT22;5023;53.554;9.964;2023-07-20T10:02:20;17.20;99.90
9965;DHT22;5023;53.554;9.964;2023-07-20T10:07:27;17.30;99.90
9965;DHT22;5023;53.554;9.964;2023-07-20T10:12:31;17.70;99.90
9965;DHT22;5023;53.554;9.964;2023-07-20T10:17:33;18.00;99.90
9965;DHT22;5023;53.554;9.964;2023-07-20T10:22:36;18.10;99.90
9965;DHT22;5023;53.554;9.964;2023-07-20T10:27:40;18.10;99.90
9965;DHT22;5023;53.554;9.964;2023-07-20T10:32:42;18.20;99.90
9965;DHT22;5023;53.554;9.964;2023-07-20T10:37:53;18.50;99.90
9965;DHT22;5023;53.554;9.964;2023-07-20T10:42:59;18.80;99.90
9965;DHT22;5023;53.554;9.964;2023-07-20T10:48:05;18.90;99.90
9965;DHT22;5023;53.554;9.964;2023-07-20T10:53:15;18.80;99.90
9965;DHT22;5023;53.554;9.964;2023-07-20T10:58:18;18.70;99.90
9965;DHT22;5023;53.554;9.964;2023-07-20T11:03:27;18.50;99.90
9965;DHT22;5023;53.554;9.964;2023-07-20T11:08:41;18.50;99.90
9965;DHT22;5023;53.554;9.964;2023-07-20T11:13:54;18.40;99.90
9965;DHT22;5023;53.554;9.964;2023-07-20T11:18:56;18.40;99.90
9965;DHT22;5023;53.554;9.964;2023-07-20T11:24:05;18.20;99.90
9965;DHT22;5023;53.554;9.964;2023-07-20T11:29:07;18.20;99.90
9965;DHT22;5023;53.554;9.964;2023-07-20T11:34:11;18.30;99.90
9965;DHT22;5023;53.554;9.964;2023-07-20T11:39:16;18.20;99.90
9965;DHT22;5023;53.554;9.964;2023-07-20T11:44:21;18.30;99.90
9965;DHT22;5023;53.554;9.964;2023-07-20T11:49:27;18.50;99.90
9965;DHT22;5023;53.554;9.964;2023-07-20T11:54:30;18.70;99.90
9965;DHT22;5023;53.554;9.964;2023-07-20T11:59:33;19.00;99.90
9965;DHT22;5023;53.554;9.964;2023-07-20T12:04:35;19.40;99.90
9965;DHT22;5023;53.554;9.964;2023-07-20T12:09:39;19.70;99.90
9965;DHT22;5023;53.554;9.964;2023-07-20T12:14:41;20.00;99.90
9965;DHT22;5023;53.554;9.964;2023-07-20T12:19:42;20.10;99.90
9965;DHT22;5023;53.554;9.964;2023-07-20T12:24:46;19.90;99.90
9965;DHT22;5023;53.554;9.964;2023-07-20T12:29:48;19.50;99.90
9965;DHT22;5023;53.554;9.964;2023-07-20T12:34:49;19.40;99.90
9965;DHT22;5023;53.554;9.964;2023-07-20T12:39:53;19.20;99.90
9965;DHT22;5023;53.554;9.964;2023-07-20T12:44:55;19.40;99.90
9965;DHT22;5023;53.554;9.964;2023-07-20T12:49:56;19.40;99.90
9965;DHT22;5023;53.554;9.964;2023-07-20T12:55:00;19.40;99.90
9965;DHT22;5023;53.554;9.964;2023-07-20T13:00:02;19.70;99.90
9965;DHT22;5023;53.554;9.964;2023-07-20T13:05:05;19.80;99.90
9965;DHT22;5023;53.554;9.964;2023-07-20T13:10:09;19.80;99.90
9965;DHT22;5023;53.554;9.964;2023-07-20T13:15:11;20.60;99.90
9965;DHT22;5023;53.554;9.964;2023-07-20T13:20:13;21.50;99.90
9965;DHT22;5023;53.554;9.964;2023-07-20T13:25:17;21.40;99.90
9965;DHT22;5023;53.554;9.964;2023-07-20T13:30:19;21.80;99.90
9965;DHT22;5023;53.554;9.964;2023-07-20T13:35:22;23.00;99.90
9965;DHT22;5023;53.554;9.964;2023-07-20T13:40:25;23.70;99.90
9965;DHT22;5023;53.554;9.964;2023-07-20T13:45:27;24.20;98.30
9965;DHT22;5023;53.554;9.964;2023-07-20T13:50:29;24.20;96.00
9965;DHT22;5023;53.554;9.964;2023-07-20T13:56:07;24.70;95.60
9965;DHT22;5023;53.554;9.964;2023-07-20T14:01:09;24.40;95.00
9965;DHT22;5023;53.554;9.964;2023-07-20T14:06:12;25.00;95.60
9965;DHT22;5023;53.554;9.964;2023-07-20T14:11:15;24.40;90.10
9965;DHT22;5023;53.554;9.964;2023-07-20T14:16:25;23.70;89.50
9965;DHT22;5023;53.554;9.964;2023-07-20T14:21:27;23.10;92.10
9965;DHT22;5023;53.554;9.964;2023-07-20T14:26:30;24.30;92.80
9965;DHT22;5023;53.554;9.964;2023-07-20T14:31:32;24.90;91.40
9965;DHT22;5023;53.554;9.964;2023-07-20T14:36:34;25.00;88.00
9965;DHT22;5023;53.554;9.964;2023-07-20T14:41:38;24.50;85.30
9965;DHT22;5023;53.554;9.964;2023-07-20T14:46:39;25.10;83.50
9965;DHT22;5023;53.554;9.964;2023-07-20T14:51:48;25.50;81.30
9965;DHT22;5023;53.554;9.964;2023-07-20T15:03:17;24.70;81.60
9965;DHT22;5023;53.554;9.964;2023-07-20T15:20:20;24.40;85.30
9965;DHT22;5023;53.554;9.964;2023-07-20T15:25:36;24.00;88.00
9965;DHT22;5023;53.554;9.964;2023-07-20T15:36:47;23.90;90.60
9965;DHT22;5023;53.554;9.964;2023-07-20T15:41:49;23.30;90.70
9965;DHT22;5023;53.554;9.964;2023-07-20T15:46:51;23.30;91.40
9965;DHT22;5023;53.554;9.964;2023-07-20T15:51:55;23.00;90.00
9965;DHT22;5023;53.554;9.964;2023-07-20T15:57:01;22.50;91.40
9965;DHT22;5023;53.554;9.964;2023-07-20T16:02:28;22.60;90.80
9965;DHT22;5023;53.554;9.964;2023-07-20T16:07:32;22.30;91.50
9965;DHT22;5023;53.554;9.964;2023-07-20T16:12:33;22.20;91.80
9965;DHT22;5023;53.554;9.964;2023-07-20T16:17:35;21.90;92.70
9965;DHT22;5023;53.554;9.964;2023-07-20T16:22:39;21.60;91.40
9965;DHT22;5023;53.554;9.964;2023-07-20T16:27:41;21.40;93.00
9965;DHT22;5023;53.554;9.964;2023-07-20T16:32:43;21.30;94.60
9965;DHT22;5023;53.554;9.964;2023-07-20T16:37:46;21.10;94.10
9965;DHT22;5023;53.554;9.964;2023-07-20T16:42:48;21.00;94.20
9965;DHT22;5023;53.554;9.964;2023-07-20T16:47:50;20.90;93.70
9965;DHT22;5023;53.554;9.964;2023-07-20T16:52:53;20.80;92.80
9965;DHT22;5023;53.554;9.964;2023-07-20T16:57:55;20.50;96.30
9965;DHT22;5023;53.554;9.964;2023-07-20T17:02:57;20.60;97.20
9965;DHT22;5023;53.554;9.964;2023-07-20T17:08:01;20.60;97.50
9965;DHT22;5023;53.554;9.964;2023-07-20T17:13:03;20.50;98.30
9965;DHT22;5023;53.554;9.964;2023-07-20T17:18:05;20.40;98.20
9965;DHT22;5023;53.554;9.964;2023-07-20T17:23:09;20.10;97.70
9965;DHT22;5023;53.554;9.964;2023-07-20T17:28:11;20.00;98.90
9965;DHT22;5023;53.554;9.964;2023-07-20T17:33:13;20.10;99.90
9965;DHT22;5023;53.554;9.964;2023-07-20T17:38:19;19.80;99.90
9965;DHT22;5023;53.554;9.964;2023-07-20T17:43:21;19.80;99.90
9965;DHT22;5023;53.554;9.964;2023-07-20T17:48:23;19.80;99.90
9965;DHT22;5023;53.554;9.964;2023-07-20T17:53:26;19.70;99.90
9965;DHT22;5023;53.554;9.964;2023-07-20T17:58:28;19.70;99.90
9965;DHT22;5023;53.554;9.964;2023-07-20T18:03:30;19.60;99.90
9965;DHT22;5023;53.554;9.964;2023-07-20T18:08:33;19.60;99.90
9965;DHT22;5023;53.554;9.964;2023-07-20T18:13:35;19.60;99.90
9965;DHT22;5023;53.554;9.964;2023-07-20T18:18:37;19.50;99.90
9965;DHT22;5023;53.554;9.964;2023-07-20T18:23:40;19.40;99.90
9965;DHT22;5023;53.554;9.964;2023-07-20T18:28:44;19.10;99.90
9965;DHT22;5023;53.554;9.964;2023-07-20T18:34:02;19.00;99.90
9965;DHT22;5023;53.554;9.964;2023-07-20T18:39:05;19.00;99.90
9965;DHT22;5023;53.554;9.964;2023-07-20T18:44:07;18.90;99.90
9965;DHT22;5023;53.554;9.964;2023-07-20T18:49:09;18.80;99.90
9965;DHT22;5023;53.554;9.964;2023-07-20T18:54:12;18.80;99.90
9965;DHT22;5023;53.554;9.964;2023-07-20T18:59:23;18.70;99.90
9965;DHT22;5023;53.554;9.964;2023-07-20T19:04:26;18.60;99.90
9965;DHT22;5023;53.554;9.964;2023-07-20T19:09:29;18.60;99.90
9965;DHT22;5023;53.554;9.964;2023-07-20T19:14:31;18.40;99.90
9965;DHT22;5023;53.554;9.964;2023-07-20T19:19:33;18.50;99.90
9965;DHT22;5023;53.554;9.964;2023-07-20T19:24:36;18.30;99.90
9965;DHT22;5023;53.554;9.964;2023-07-20T19:29:38;18.40;99.90
9965;DHT22;5023;53.554;9.964;2023-07-20T19:34:40;18.30;99.90
9965;DHT22;5023;53.554;9.964;2023-07-20T19:39:44;18.30;99.90
9965;DHT22;5023;53.554;9.964;2023-07-20T19:44:50;18.30;99.90
9965;DHT22;5023;53.554;9.964;2023-07-20T19:50:01;18.40;99.90
9965;DHT22;5023;53.554;9.964;2023-07-20T19:55:08;18.40;99.90
9965;DHT22;5023;53.554;9.964;2023-07-20T20:00:10;18.50;99.90
9965;DHT22;5023;53.554;9.964;2023-07-20T20:05:13;18.50;99.90
9965;DHT22;5023;53.554;9.964;2023-07-20T20:10:17;18.40;99.90
9965;DHT22;5023;53.554;9.964;2023-07-20T20:15:19;18.40;99.90
9965;DHT22;5023;53.554;9.964;2023-07-20T20:20:23;18.40;99.90
9965;DHT22;5023;53.554;9.964;2023-07-20T20:25:26;18.30;99.90
9965;DHT22;5023;53.554;9.964;2023-07-20T20:30:29;18.10;99.90
9965;DHT22;5023;53.554;9.964;2023-07-20T20:35:31;18.10;99.90
9965;DHT22;5023;53.554;9.964;2023-07-20T20:40:34;17.90;99.90
9965;DHT22;5023;53.554;9.964;2023-07-20T20:45:36;17.90;99.90
9965;DHT22;5023;53.554;9.964;2023-07-20T20:50:39;17.90;99.90
9965;DHT22;5023;53.554;9.964;2023-07-20T20:55:46;17.90;99.90
9965;DHT22;5023;53.554;9.964;2023-07-20T21:00:49;17.80;99.90
9965;DHT22;5023;53.554;9.964;2023-07-20T21:05:51;17.90;99.90
9965;DHT22;5023;53.554;9.964;2023-07-20T21:10:57;17.80;99.90
9965;DHT22;5023;53.554;9.964;2023-07-20T21:15:59;17.80;99.90
9965;DHT22;5023;53.554;9.964;2023-07-20T21:21:01;17.70;99.90
9965;DHT22;5023;53.554;9.964;2023-07-20T21:26:04;17.70;99.90
9965;DHT22;5023;53.554;9.964;2023-07-20T21:31:07;17.70;99.90
9965;DHT22;5023;53.554;9.964;2023-07-20T21:36:09;17.60;99.90
9965;DHT22;5023;53.554;9.964;2023-07-20T21:41:12;17.60;99.90
9965;DHT22;5023;53.554;9.964;2023-07-20T21:46:14;17.50;99.90
9965;DHT22;5023;53.554;9.964;2023-07-20T21:51:17;17.40;99.90
9965;DHT22;5023;53.554;9.964;2023-07-20T21:56:21;17.40;99.90
9965;DHT22;5023;53.554;9.964;2023-07-20T22:01:23;17.30;99.90
9965;DHT22;5023;53.554;9.964;2023-07-20T22:06:25;17.30;99.90
9965;DHT22;5023;53.554;9.964;2023-07-20T22:11:28;17.20;99.90
9965;DHT22;5023;53.554;9.964;2023-07-20T22:16:30;17.20;99.90
9965;DHT22;5023;53.554;9.964;2023-07-20T22:21:33;17.20;99.90
9965;DHT22;5023;53.554;9.964;2023-07-20T22:26:36;17.20;99.90
9965;DHT22;5023;53.554;9.964;2023-07-20T22:31:38;17.20;99.90
9965;DHT22;5023;53.554;9.964;2023-07-20T22:36:40;17.30;99.90
9965;DHT22;5023;53.554;9.964;2023-07-20T22:41:43;17.30;99.90
9965;DHT22;5023;53.554;9.964;2023-07-20T22:46:46;17.20;99.90
9965;DHT22;5023;53.554;9.964;2023-07-20T22:51:48;17.20;99.90
9965;DHT22;5023;53.554;9.964;2023-07-20T22:56:51;17.20;99.90
9965;DHT22;5023;53.554;9.964;2023-07-20T23:01:53;17.10;99.90
9965;DHT22;5023;53.554;9.964;2023-07-20T23:06:55;17.00;99.90
9965;DHT22;5023;53.554;9.964;2023-07-20T23:11:58;17.10;99.90
9965;DHT22;5023;53.554;9.964;2023-07-20T23:17:01;17.00;99.90
9965;DHT22;5023;53.554;9.964;2023-07-20T23:22:05;17.10;99.90
9965;DHT22;5023;53.554;9.964;2023-07-20T23:27:08;17.10;99.90
9965;DHT22;5023;53.554;9.964;2023-07-20T23:32:10;17.10;99.90
9965;DHT22;5023;53.554;9.964;2023-07-20T23:37:12;17.20;99.90
9965;DHT22;5023;53.554;9.964;2023-07-20T23:42:17;17.20;99.90
9965;DHT22;5023;53.554;9.964;2023-07-20T23:47:19;17.20;99.90
9965;DHT22;5023;53.554;9.964;2023-07-20T23:52:23;17.10;99.90
9965;DHT22;5023;53.554;9.964;2023-07-20T23:57:29;17.10;99.90
